Terminal Aerodrome Forecast
Issued by NWS

Home | Current Version | Previous Version | Text Only | Print | Product List | Glossary On
Versions: 1 2 3 4 5 6 7 8 9 10 11 12 13 14 15 16 17
000
FTUS42 TJSJ 300656 AAA
TAFIST
TAF AMD
TIST 300656Z 3007/3106 08010KT P6SM VCSH SCT025 SCT040
      TEMPO 3007/3008 VRB12KT 3SM SHRA BKN025
     FM301300 11013KT P6SM VCSH SCT030 BKN050
     FM302300 08010KT P6SM FEW025=

USA.gov is the U.S. government's official web portal to all federal, state and local government web resources and services.